Terminal Aerodrome Forecast
Issued by NWS

Home | Current Version | Previous Version | Text Only | Print | Product List | Glossary On
Versions: 1 2 3 4 5 6 7 8 9 10 11 12
000
FTUS45 KPSR 191141
TAFIPL
TAF
KIPL 191141Z 1912/2012 28005KT P6SM FEW250
     FM191600 VRB04KT P6SM FEW250
     FM200000 25010G20KT P6SM SCT060
      TEMPO 2003/2007 25018G28KT=

USA.gov is the U.S. government's official web portal to all federal, state and local government web resources and services.